createdAt,value
2023-12-08T00:01:28.672Z,4.05
2023-12-08T00:04:03.310Z,4.78
2023-12-08T00:06:33.551Z,3.63
2023-12-08T00:09:05.195Z,3.88
2023-12-08T00:11:41.835Z,4.53
2023-12-08T00:14:12.825Z,4.57
2023-12-08T00:16:43.156Z,5.05
2023-12-08T00:19:15.221Z,5.70
2023-12-08T00:21:45.797Z,6.25
2023-12-08T00:24:16.278Z,4.97
2023-12-08T00:26:46.978Z,5.57
2023-12-08T00:29:17.475Z,7.18
2023-12-08T00:31:45.779Z,4.70
2023-12-08T00:34:16.213Z,7.43
2023-12-08T00:36:46.887Z,7.40
2023-12-08T00:39:17.173Z,9.18
2023-12-08T00:41:48.799Z,5.40
2023-12-08T00:44:19.936Z,5.88
2023-12-08T00:46:50.176Z,7.20
2023-12-08T00:49:20.468Z,5.85
2023-12-08T00:51:52.971Z,7.60
2023-12-08T00:54:23.573Z,3.63
2023-12-08T00:56:53.990Z,7.88
2023-12-08T00:59:24.447Z,5.65
2023-12-08T01:01:55.147Z,8.88
2023-12-08T01:04:25.582Z,6.90
2023-12-08T01:06:55.772Z,6.05
2023-12-08T01:09:26.042Z,7.22
2023-12-08T01:11:57.178Z,5.85
2023-12-08T01:14:27.436Z,5.85
2023-12-08T01:16:58.109Z,7.07
2023-12-08T01:19:31.428Z,7.13
2023-12-08T01:22:02.072Z,4.28
2023-12-08T01:24:33.420Z,9.38
2023-12-08T01:27:04.209Z,7.38
2023-12-08T01:29:35.267Z,8.45
2023-12-08T01:32:08.316Z,8.75
2023-12-08T01:34:38.969Z,2.70
2023-12-08T01:37:09.901Z,8.00
2023-12-08T01:39:40.579Z,9.80
2023-12-08T01:42:14.029Z,8.95
2023-12-08T01:44:44.712Z,6.82
2023-12-08T01:47:15.815Z,9.68
2023-12-08T01:49:46.776Z,12.60
2023-12-08T01:52:20.037Z,6.55
2023-12-08T01:54:58.433Z,10.50
2023-12-08T01:57:29.306Z,11.05
2023-12-08T02:00:00.269Z,10.93
2023-12-08T02:02:34.308Z,8.07
2023-12-08T02:05:07.031Z,8.52
2023-12-08T02:07:41.455Z,7.50
2023-12-08T02:10:12.226Z,10.60
2023-12-08T02:12:43.149Z,8.80
2023-12-08T02:15:15.902Z,10.55
2023-12-08T02:17:54.120Z,8.25
2023-12-08T02:20:25.688Z,9.43
2023-12-08T02:22:58.410Z,11.32
2023-12-08T02:25:28.762Z,12.27
2023-12-08T02:27:59.812Z,8.90
2023-12-08T02:30:30.315Z,9.23
2023-12-08T02:33:13.920Z,6.47
2023-12-08T02:35:47.226Z,13.50
2023-12-08T02:38:21.176Z,10.25
2023-12-08T02:40:51.662Z,5.25
2023-12-08T02:43:22.035Z,5.22
2023-12-08T02:45:53.490Z,11.70
2023-12-08T02:48:24.356Z,8.38
2023-12-08T02:50:55.222Z,10.05
2023-12-08T02:53:26.377Z,10.45
2023-12-08T02:55:59.323Z,12.05
2023-12-08T02:58:30.183Z,14.30
2023-12-08T03:01:00.441Z,12.40
2023-12-08T03:03:32.872Z,12.43
2023-12-08T03:06:04.303Z,13.25
2023-12-08T03:08:36.197Z,14.32
2023-12-08T03:11:09.525Z,14.73
2023-12-08T03:13:39.904Z,10.77
2023-12-08T03:16:11.148Z,10.48
2023-12-08T03:18:41.485Z,12.68
2023-12-08T03:21:23.641Z,15.35
2023-12-08T03:23:54.464Z,13.98
2023-12-08T03:26:26.124Z,9.90
2023-12-08T03:28:58.454Z,12.77
2023-12-08T03:31:30.255Z,10.23
2023-12-08T03:34:03.119Z,11.20
2023-12-08T03:36:34.589Z,15.07
2023-12-08T03:39:05.029Z,11.75
2023-12-08T03:41:38.234Z,12.15
2023-12-08T03:44:09.056Z,13.02
2023-12-08T03:46:39.608Z,9.80
2023-12-08T03:49:12.473Z,13.57
2023-12-08T03:51:45.190Z,14.40
2023-12-08T03:54:16.676Z,10.25
2023-12-08T03:56:47.431Z,9.60
2023-12-08T03:59:18.278Z,6.68
2023-12-08T04:01:48.612Z,11.75
2023-12-08T04:04:26.064Z,14.45
2023-12-08T04:07:01.087Z,14.35
2023-12-08T04:09:34.700Z,7.35
2023-12-08T04:12:07.910Z,14.82
2023-12-08T04:14:45.493Z,10.43
2023-12-08T04:17:15.850Z,12.18
2023-12-08T04:19:49.349Z,12.88
2023-12-08T04:22:19.609Z,7.70
2023-12-08T04:24:49.833Z,11.60
2023-12-08T04:27:22.321Z,14.07
2023-12-08T04:29:52.573Z,11.45
2023-12-08T04:32:26.197Z,11.93
2023-12-08T04:35:00.403Z,9.63
2023-12-08T04:37:33.043Z,13.03
2023-12-08T04:40:04.243Z,5.30
2023-12-08T04:42:43.444Z,20.05
2023-12-08T04:45:16.079Z,12.40
2023-12-08T04:47:59.814Z,11.63
2023-12-08T04:50:34.098Z,19.15
2023-12-08T04:53:06.840Z,7.35
2023-12-08T04:55:37.956Z,12.50
2023-12-08T04:58:08.746Z,13.90
2023-12-08T05:00:39.919Z,15.27
2023-12-08T05:03:17.881Z,17.13
2023-12-08T05:05:48.466Z,13.98
2023-12-08T05:08:21.084Z,22.40
2023-12-08T05:10:51.287Z,14.45
2023-12-08T05:13:21.546Z,12.25
2023-12-08T05:15:51.870Z,19.58
2023-12-08T05:18:24.913Z,11.93
2023-12-08T05:20:55.946Z,22.23
2023-12-08T05:23:26.046Z,10.85
2023-12-08T05:25:57.010Z,21.27
2023-12-08T05:28:28.247Z,15.68
2023-12-08T05:31:00.599Z,28.10
2023-12-08T05:33:39.698Z,21.73
2023-12-08T05:36:10.488Z,13.88
2023-12-08T05:38:41.602Z,13.77
2023-12-08T05:41:12.147Z,11.38
2023-12-08T05:43:42.437Z,11.82
2023-12-08T05:46:12.489Z,18.13
2023-12-08T05:48:43.456Z,19.98
2023-12-08T05:51:16.418Z,15.38
2023-12-08T05:53:48.836Z,23.52
2023-12-08T05:56:19.451Z,19.08
2023-12-08T05:58:49.874Z,20.05
2023-12-08T06:01:21.550Z,12.88
2023-12-08T06:03:55.711Z,21.95
2023-12-08T06:06:28.958Z,15.68
2023-12-08T06:11:34.596Z,24.08
2023-12-08T06:14:08.004Z,22.75
2023-12-08T06:16:45.842Z,21.08
2023-12-08T06:19:18.328Z,22.70
2023-12-08T06:21:50.269Z,14.25
2023-12-08T06:24:23.161Z,17.92
2023-12-08T06:29:29.073Z,13.23
2023-12-08T06:32:00.786Z,18.73
2023-12-08T06:34:34.138Z,20.65
2023-12-08T06:37:06.865Z,20.87
2023-12-08T06:39:40.727Z,25.85
2023-12-08T06:42:13.504Z,21.45
2023-12-08T06:44:44.339Z,4.57
2023-12-08T06:47:14.632Z,28.52
2023-12-08T06:49:47.840Z,23.10
2023-12-08T06:52:20.921Z,38.72
2023-12-08T06:54:51.879Z,27.48
2023-12-08T06:57:22.386Z,19.83
2023-12-08T06:59:56.301Z,13.18
2023-12-08T07:02:28.877Z,25.52
2023-12-08T07:05:01.614Z,18.23
2023-12-08T07:07:34.914Z,17.38
2023-12-08T07:10:08.338Z,23.95
2023-12-08T07:12:42.738Z,15.70
2023-12-08T07:15:14.232Z,16.00
2023-12-08T07:20:18.520Z,13.80
2023-12-08T07:22:51.902Z,29.67
2023-12-08T07:25:22.105Z,21.77
2023-12-08T07:27:53.035Z,20.75
2023-12-08T07:30:23.693Z,33.70
2023-12-08T07:33:11.758Z,25.73
2023-12-08T07:35:42.860Z,17.05
2023-12-08T07:38:13.082Z,22.73
2023-12-08T07:40:47.201Z,21.55
2023-12-08T07:43:17.327Z,20.35
2023-12-08T07:45:47.843Z,24.42
2023-12-08T07:48:19.123Z,16.55
2023-12-08T07:50:49.925Z,26.30
2023-12-08T07:53:20.179Z,23.15
2023-12-08T07:55:50.629Z,24.88
2023-12-08T07:58:21.655Z,15.85
2023-12-08T08:00:55.167Z,20.50
2023-12-08T08:03:36.719Z,24.60
2023-12-08T08:06:07.372Z,21.38
2023-12-08T08:08:39.149Z,12.50
2023-12-08T08:11:09.695Z,14.75
2023-12-08T08:13:45.509Z,28.85
2023-12-08T08:16:15.883Z,24.58
2023-12-08T08:18:47.955Z,15.90
2023-12-08T08:21:18.431Z,24.95
2023-12-08T08:23:49.425Z,25.38
2023-12-08T08:26:20.101Z,24.55
2023-12-08T08:28:53.085Z,23.13
2023-12-08T08:31:23.672Z,24.77
2023-12-08T08:33:56.688Z,24.73
2023-12-08T08:36:27.733Z,22.40
2023-12-08T08:38:58.156Z,12.88
2023-12-08T08:41:28.911Z,23.50
2023-12-08T08:43:59.147Z,20.13
2023-12-08T08:46:29.954Z,22.77
2023-12-08T08:49:03.431Z,18.45
2023-12-08T08:51:34.975Z,26.77
2023-12-08T08:54:05.778Z,25.63
2023-12-08T08:56:40.062Z,12.10
2023-12-08T08:59:13.058Z,19.27
2023-12-08T09:01:48.227Z,22.92
2023-12-08T09:04:19.062Z,11.60
2023-12-08T09:06:49.646Z,22.90
2023-12-08T09:09:20.354Z,23.33
2023-12-08T09:11:51.510Z,16.20
2023-12-08T09:14:21.977Z,24.92
2023-12-08T09:16:54.950Z,11.90
2023-12-08T09:19:29.781Z,23.95
2023-12-08T09:22:02.645Z,27.75
2023-12-08T09:24:36.465Z,25.90
2023-12-08T09:27:06.941Z,23.15
2023-12-08T09:29:38.047Z,28.05
2023-12-08T09:32:09.617Z,21.55
2023-12-08T09:34:40.808Z,25.92
2023-12-08T09:37:26.776Z,24.13
2023-12-08T09:40:02.712Z,28.48
2023-12-08T09:42:40.409Z,29.75
2023-12-08T09:45:12.597Z,26.77
2023-12-08T09:47:44.349Z,22.05
2023-12-08T09:50:15.807Z,27.48
2023-12-08T09:52:46.896Z,29.02
2023-12-08T09:55:17.363Z,20.65
2023-12-08T09:57:49.736Z,28.33
2023-12-08T10:00:21.692Z,31.42
2023-12-08T10:03:03.647Z,29.08
2023-12-08T10:05:34.732Z,27.38
2023-12-08T10:08:05.843Z,24.52
2023-12-08T10:10:36.363Z,36.78
2023-12-08T10:13:06.857Z,23.90
2023-12-08T10:15:37.398Z,30.40
2023-12-08T10:18:09.973Z,30.83
2023-12-08T10:20:41.460Z,26.33
2023-12-08T10:23:12.090Z,38.35
2023-12-08T10:25:42.384Z,33.40
2023-12-08T10:28:14.793Z,35.05
2023-12-08T10:30:53.887Z,26.73
2023-12-08T10:33:25.555Z,37.78
2023-12-08T10:35:56.356Z,34.25
2023-12-08T10:38:26.835Z,29.92
2023-12-08T10:41:00.826Z,31.00
2023-12-08T10:46:04.427Z,34.33
2023-12-08T10:48:39.396Z,35.88
2023-12-08T10:53:45.793Z,32.17
2023-12-08T10:56:17.431Z,37.75
2023-12-08T10:58:48.666Z,37.22
2023-12-08T11:01:21.595Z,37.65
2023-12-08T11:04:06.640Z,41.13
2023-12-08T11:06:44.227Z,37.63
2023-12-08T11:09:17.014Z,38.85
2023-12-08T11:11:52.869Z,45.05
2023-12-08T11:14:30.738Z,38.55
2023-12-08T11:17:03.517Z,42.80
2023-12-08T11:19:37.686Z,36.15
2023-12-08T11:22:10.436Z,33.08
2023-12-08T11:24:44.386Z,40.03
2023-12-08T11:27:18.483Z,40.63
2023-12-08T11:29:56.380Z,38.80
2023-12-08T11:32:32.640Z,42.50
2023-12-08T11:35:08.981Z,40.92
2023-12-08T11:37:42.129Z,42.40
2023-12-08T11:40:14.779Z,45.15
2023-12-08T11:42:52.344Z,40.83
2023-12-08T11:45:22.745Z,34.45
2023-12-08T11:47:56.322Z,48.53
2023-12-08T11:50:27.364Z,39.53
2023-12-08T11:52:57.487Z,45.35
2023-12-08T11:55:33.869Z,45.92
2023-12-08T11:58:06.270Z,48.55
2023-12-08T12:00:41.177Z,33.13
2023-12-08T12:03:15.741Z,43.55
2023-12-08T12:05:46.285Z,41.75
2023-12-08T12:08:18.068Z,43.28
2023-12-08T12:10:49.884Z,43.65
2023-12-08T12:13:26.347Z,53.05
2023-12-08T12:15:58.312Z,49.60
2023-12-08T12:18:29.791Z,44.67
2023-12-08T12:21:01.013Z,47.83
2023-12-08T12:23:33.480Z,43.47
2023-12-08T12:26:11.705Z,36.90
2023-12-08T12:28:44.305Z,47.20
2023-12-08T12:31:18.402Z,26.30
2023-12-08T12:33:52.401Z,47.72
2023-12-08T12:36:24.537Z,46.58
2023-12-08T12:38:55.677Z,51.42
2023-12-08T12:41:29.368Z,28.37
2023-12-08T12:44:02.786Z,51.35
2023-12-08T12:46:34.743Z,45.72
2023-12-08T12:49:07.727Z,48.63
2023-12-08T12:51:39.250Z,44.33
2023-12-08T12:54:09.517Z,48.83
2023-12-08T12:56:40.517Z,45.58
2023-12-08T12:59:12.317Z,35.67
2023-12-08T13:01:42.360Z,67.88
2023-12-08T13:04:12.678Z,54.58
2023-12-08T13:06:46.696Z,66.63
2023-12-08T13:09:30.595Z,44.28
2023-12-08T13:12:01.825Z,56.17
2023-12-08T13:14:33.685Z,56.00
2023-12-08T13:17:07.016Z,45.00
2023-12-08T13:19:40.181Z,50.17
2023-12-08T13:22:12.777Z,57.92
2023-12-08T13:24:48.522Z,47.25
2023-12-08T13:27:19.316Z,53.15
2023-12-08T13:29:49.773Z,40.33
2023-12-08T13:32:20.546Z,46.05
2023-12-08T13:34:51.175Z,43.80
2023-12-08T13:37:23.171Z,57.47
2023-12-08T13:39:55.996Z,51.35
2023-12-08T13:42:26.485Z,41.35
2023-12-08T13:45:01.258Z,60.00
2023-12-08T13:47:36.327Z,50.30
2023-12-08T13:50:07.227Z,53.90
2023-12-08T13:52:43.279Z,47.47
2023-12-08T13:55:16.756Z,44.30
2023-12-08T13:57:47.428Z,54.60
2023-12-08T14:00:18.227Z,48.67
2023-12-08T14:03:07.885Z,55.38
2023-12-08T14:05:38.069Z,63.10
2023-12-08T14:08:11.210Z,69.25
2023-12-08T14:10:42.031Z,63.45
2023-12-08T14:13:12.594Z,53.08
2023-12-08T14:15:44.261Z,52.88
2023-12-08T14:18:14.806Z,60.58
2023-12-08T14:20:48.042Z,61.38
2023-12-08T14:23:21.203Z,59.92
2023-12-08T14:25:51.766Z,62.42
2023-12-08T14:28:23.418Z,70.05
2023-12-08T14:30:54.142Z,64.85
2023-12-08T14:33:25.453Z,51.35
2023-12-08T14:35:56.127Z,65.00
2023-12-08T14:38:26.792Z,64.07
2023-12-08T14:40:57.994Z,54.08
2023-12-08T14:43:28.099Z,68.88
2023-12-08T14:46:00.061Z,64.68
2023-12-08T14:48:31.306Z,60.20
2023-12-08T14:51:01.845Z,64.22
2023-12-08T14:53:33.578Z,64.65
2023-12-08T14:56:04.725Z,72.38
2023-12-08T14:58:37.348Z,65.95
2023-12-08T15:01:08.063Z,62.72
2023-12-08T15:03:40.668Z,61.00
2023-12-08T15:06:11.180Z,66.00
2023-12-08T15:08:42.171Z,75.28
2023-12-08T15:11:14.866Z,58.72
2023-12-08T15:13:47.374Z,57.03
2023-12-08T15:16:17.819Z,62.50
2023-12-08T15:18:48.417Z,74.22
2023-12-08T15:21:22.999Z,60.05
2023-12-08T15:23:58.402Z,54.83
2023-12-08T15:28:59.968Z,50.72
2023-12-08T15:31:30.537Z,52.13
2023-12-08T15:34:01.162Z,51.88
2023-12-08T15:36:33.723Z,61.20
2023-12-08T15:39:07.110Z,46.78
2023-12-08T15:41:37.501Z,57.10
2023-12-08T15:44:08.384Z,54.95
2023-12-08T15:46:42.016Z,48.58
2023-12-08T15:49:12.865Z,53.67
2023-12-08T15:51:46.902Z,52.63
2023-12-08T15:54:17.193Z,51.47
2023-12-08T15:56:49.849Z,51.60
2023-12-08T15:59:20.154Z,51.10
2023-12-08T16:01:50.748Z,50.95
2023-12-08T16:04:23.240Z,53.30
2023-12-08T16:06:54.306Z,40.67
2023-12-08T16:09:24.807Z,51.38
2023-12-08T16:11:55.195Z,66.03
2023-12-08T16:14:26.063Z,62.33
2023-12-08T16:16:57.403Z,61.58
2023-12-08T16:19:28.123Z,53.83
2023-12-08T16:21:58.735Z,52.58
2023-12-08T16:24:32.911Z,47.30
2023-12-08T16:27:04.174Z,48.03
2023-12-08T16:29:36.889Z,46.63
2023-12-08T16:32:10.194Z,54.45
2023-12-08T16:34:40.744Z,46.95
2023-12-08T16:37:11.259Z,42.22
2023-12-08T16:39:44.371Z,51.22
2023-12-08T16:42:14.657Z,52.17
2023-12-08T16:44:45.426Z,45.95
2023-12-08T16:47:19.014Z,49.72
2023-12-08T16:49:49.338Z,53.42
2023-12-08T16:52:20.233Z,50.63
2023-12-08T16:54:53.475Z,58.83
2023-12-08T16:57:25.918Z,49.78
2023-12-08T16:59:56.991Z,38.55
2023-12-08T17:02:27.965Z,53.72
2023-12-08T17:04:59.622Z,58.70
2023-12-08T17:07:30.932Z,53.03
2023-12-08T17:10:01.812Z,58.22
2023-12-08T17:12:34.168Z,68.03
2023-12-08T17:15:05.258Z,41.50
2023-12-08T17:17:40.602Z,49.95
2023-12-08T17:20:13.416Z,51.67
2023-12-08T17:22:50.717Z,50.45
2023-12-08T17:25:20.962Z,52.20
2023-12-08T17:27:51.456Z,57.17
2023-12-08T17:30:22.361Z,40.00
2023-12-08T17:33:07.169Z,61.55
2023-12-08T17:35:37.435Z,51.30
2023-12-08T17:38:16.691Z,50.95
2023-12-08T17:40:47.555Z,61.03
2023-12-08T17:43:18.359Z,58.78
2023-12-08T17:45:48.926Z,53.70
2023-12-08T17:48:21.604Z,64.75
2023-12-08T17:50:57.156Z,44.58
2023-12-08T17:53:27.607Z,52.55
2023-12-08T17:55:58.398Z,54.47
2023-12-08T17:58:28.918Z,58.17
2023-12-08T18:00:59.774Z,53.45
2023-12-08T18:03:32.255Z,45.53
2023-12-08T18:06:03.452Z,46.88
2023-12-08T18:08:34.770Z,46.08
2023-12-08T18:11:05.206Z,48.72
2023-12-08T18:13:38.022Z,46.88
2023-12-08T18:16:08.411Z,45.03
2023-12-08T18:18:38.866Z,38.40
2023-12-08T18:21:09.295Z,44.40
2023-12-08T18:23:39.424Z,53.38
2023-12-08T18:26:15.255Z,65.20
2023-12-08T18:31:29.617Z,40.20
2023-12-08T18:34:02.571Z,53.42
2023-12-08T18:36:35.508Z,49.90
2023-12-08T18:39:07.879Z,38.30
2023-12-08T18:41:39.411Z,50.03
2023-12-08T18:44:10.220Z,44.17
2023-12-08T18:46:40.781Z,56.90
2023-12-08T18:49:12.648Z,36.40
2023-12-08T18:51:48.000Z,46.05
2023-12-08T18:54:21.002Z,55.03
2023-12-08T18:56:51.298Z,48.67
2023-12-08T18:59:22.249Z,51.33
2023-12-08T19:01:54.070Z,45.95
2023-12-08T19:04:24.980Z,44.75
2023-12-08T19:06:56.238Z,36.22
2023-12-08T19:09:27.234Z,45.63
2023-12-08T19:12:03.978Z,45.50
2023-12-08T19:14:36.932Z,35.75
2023-12-08T19:17:09.890Z,42.42
2023-12-08T19:19:42.777Z,44.00
2023-12-08T19:22:13.543Z,50.63
2023-12-08T19:24:44.090Z,46.33
2023-12-08T19:27:14.439Z,44.45
2023-12-08T19:29:44.975Z,37.10
2023-12-08T19:32:16.754Z,44.90
2023-12-08T19:34:47.765Z,44.30
2023-12-08T19:37:18.392Z,44.17
2023-12-08T19:39:50.871Z,46.88
2023-12-08T19:42:21.201Z,40.28
2023-12-08T19:44:51.438Z,43.13
2023-12-08T19:47:22.112Z,35.60
2023-12-08T19:49:52.915Z,36.03
2023-12-08T19:54:56.723Z,27.75
2023-12-08T19:57:27.332Z,37.80
2023-12-08T20:00:00.591Z,31.75
2023-12-08T20:02:38.889Z,36.40
2023-12-08T20:05:09.223Z,28.92
2023-12-08T20:07:43.511Z,36.40
2023-12-08T20:10:14.727Z,31.83
2023-12-08T20:12:49.557Z,29.25
2023-12-08T20:15:27.585Z,33.42
2023-12-08T20:17:59.227Z,29.38
2023-12-08T20:20:29.905Z,20.75
2023-12-08T20:23:00.299Z,25.15
2023-12-08T20:25:31.530Z,52.05
2023-12-08T20:28:03.913Z,33.92
2023-12-08T20:30:34.952Z,29.02
2023-12-08T20:33:17.474Z,29.05
2023-12-08T20:35:47.820Z,28.05
2023-12-08T20:38:18.593Z,26.60
2023-12-08T20:40:49.181Z,27.13
2023-12-08T20:43:23.835Z,23.45
2023-12-08T20:45:54.855Z,21.30
2023-12-08T20:48:27.442Z,26.33
2023-12-08T20:50:59.602Z,25.50
2023-12-08T20:53:31.988Z,21.38
2023-12-08T20:56:03.480Z,24.60
2023-12-08T20:58:36.025Z,26.30
2023-12-08T21:01:06.517Z,26.02
2023-12-08T21:03:37.411Z,25.48
2023-12-08T21:06:08.855Z,21.40
2023-12-08T21:08:39.883Z,22.35
2023-12-08T21:11:10.139Z,28.17
2023-12-08T21:13:43.317Z,18.17
2023-12-08T21:16:13.870Z,23.17
2023-12-08T21:18:45.075Z,15.50
2023-12-08T21:21:15.489Z,22.25
2023-12-08T21:23:45.925Z,32.47
2023-12-08T21:26:16.473Z,24.95
2023-12-08T21:28:46.660Z,20.02
2023-12-08T21:31:17.970Z,26.55
2023-12-08T21:33:49.174Z,18.67
2023-12-08T21:36:19.385Z,22.52
2023-12-08T21:38:50.779Z,27.15
2023-12-08T21:41:23.668Z,23.05
2023-12-08T21:43:54.116Z,18.30
2023-12-08T21:46:24.884Z,17.38
2023-12-08T21:48:56.755Z,22.25
2023-12-08T21:51:31.096Z,14.85
2023-12-08T21:54:07.358Z,15.82
2023-12-08T21:56:37.761Z,17.70
2023-12-08T21:59:09.232Z,16.40
2023-12-08T22:01:39.452Z,11.88
2023-12-08T22:04:10.238Z,13.43
2023-12-08T22:06:40.792Z,20.40
2023-12-08T22:09:12.190Z,20.60
2023-12-08T22:11:42.653Z,22.88
2023-12-08T22:14:15.073Z,23.48
2023-12-08T22:16:47.530Z,15.75
2023-12-08T22:19:17.903Z,18.17
2023-12-08T22:21:48.558Z,18.50
2023-12-08T22:24:19.768Z,19.48
2023-12-08T22:26:51.185Z,24.90
2023-12-08T22:29:21.773Z,18.40
2023-12-08T22:31:55.526Z,15.13
2023-12-08T22:34:26.782Z,19.85
2023-12-08T22:36:57.169Z,18.58
2023-12-08T22:39:28.331Z,16.35
2023-12-08T22:42:01.455Z,9.85
2023-12-08T22:44:35.407Z,17.70
2023-12-08T22:47:05.602Z,13.20
2023-12-08T22:49:36.366Z,11.90
2023-12-08T22:52:09.226Z,13.80
2023-12-08T22:54:39.463Z,19.23
2023-12-08T22:57:09.692Z,23.10
2023-12-08T22:59:42.485Z,13.03
2023-12-08T23:02:12.963Z,15.50
2023-12-08T23:04:46.354Z,8.73
2023-12-08T23:07:16.988Z,16.17
2023-12-08T23:09:48.346Z,17.75
2023-12-08T23:12:19.025Z,13.15
2023-12-08T23:14:51.654Z,14.73
2023-12-08T23:17:24.397Z,10.55
2023-12-08T23:19:55.524Z,14.25
2023-12-08T23:22:30.278Z,14.38
2023-12-08T23:25:00.871Z,13.98
2023-12-08T23:27:34.258Z,9.27
2023-12-08T23:30:06.397Z,10.40
2023-12-08T23:32:56.069Z,7.65
2023-12-08T23:35:27.140Z,13.60
2023-12-08T23:37:57.973Z,10.00
2023-12-08T23:40:29.371Z,10.10
2023-12-08T23:42:59.622Z,17.58
2023-12-08T23:45:30.127Z,15.80
2023-12-08T23:48:03.820Z,16.05
2023-12-08T23:50:35.048Z,9.27
2023-12-08T23:53:09.925Z,11.80
2023-12-08T23:55:40.420Z,12.23
2023-12-08T23:58:12.298Z,12.52
